Time;durP1;ratioP1;P1;durP2;ratioP2;P2;SDS_P1;SDS_P2;PMS_P1;PMS_P2;Temp;Humidity;BMP_temperature;BMP_pressure;BME280_temperature;BME280_humidity;BME280_pressure;Samples;Min_cycle;Max_cycle;Signal;HPM_P1;HPM_P2
2022/06/06 00:00:42;;;;;;;6.38;2.30;;;22.90;57.30;;;;;;5059491;28;20035;-70
2022/06/06 00:03:08;;;;;;;8.98;2.50;;;22.90;57.30;;;;;;5060856;28;20028;-70
2022/06/06 00:05:34;;;;;;;6.55;2.10;;;22.90;57.30;;;;;;5061280;28;20035;-69
2022/06/06 00:07:59;;;;;;;7.20;2.17;;;22.90;57.30;;;;;;5061436;28;20049;-69
2022/06/06 00:10:25;;;;;;;6.25;2.08;;;22.90;57.30;;;;;;5057918;28;20063;-69
2022/06/06 00:12:51;;;;;;;7.90;2.38;;;22.90;57.30;;;;;;5060106;28;20070;-69
2022/06/06 00:15:17;;;;;;;7.78;2.35;;;22.90;57.30;;;;;;5058662;28;20045;-69
2022/06/06 00:17:43;;;;;;;7.78;2.42;;;22.80;57.30;;;;;;5059155;28;20885;-69
2022/06/06 00:20:09;;;;;;;6.60;2.17;;;22.80;57.30;;;;;;5062978;28;20114;-69
2022/06/06 00:22:35;;;;;;;11.40;2.33;;;22.80;57.40;;;;;;5064675;28;20021;-69
2022/06/06 00:25:01;;;;;;;7.88;2.10;;;22.80;57.40;;;;;;5065852;28;20039;-69
2022/06/06 00:27:26;;;;;;;8.60;2.25;;;22.80;57.40;;;;;;5065408;28;20028;-69
2022/06/06 00:29:53;;;;;;;7.85;2.35;;;22.80;57.40;;;;;;5064676;28;20044;-69
2022/06/06 00:35:06;;;;;;;7.03;1.90;;;22.80;57.40;;;;;;5062980;28;20047;-69
2022/06/06 00:37:33;;;;;;;6.88;2.30;;;22.70;57.40;;;;;;5066137;28;20052;-69
2022/06/06 00:39:59;;;;;;;9.18;2.15;;;22.70;57.50;;;;;;5060506;28;20282;-69
2022/06/06 00:42:26;;;;;;;8.60;2.33;;;22.70;57.50;;;;;;5062772;28;20251;-69
2022/06/06 00:45:23;;;;;;;6.72;2.13;;;22.70;57.50;;;;;;5064059;28;20550;-69
2022/06/06 00:47:55;;;;;;;10.18;2.35;;;22.70;57.50;;;;;;5064509;28;20044;-69
2022/06/06 00:50:48;;;;;;;7.00;2.20;;;22.60;57.50;;;;;;5064041;28;20119;-69
2022/06/06 00:53:15;;;;;;;5.00;1.98;;;22.60;57.50;;;;;;5063513;28;20033;-69
2022/06/06 00:55:43;;;;;;;7.28;2.10;;;22.60;57.50;;;;;;5062937;28;20035;-68
2022/06/06 00:58:14;;;;;;;7.95;2.17;;;22.60;57.60;;;;;;5063136;28;20102;-69
2022/06/06 01:00:40;;;;;;;6.90;2.30;;;22.60;57.60;;;;;;5063024;28;20511;-69
2022/06/06 01:03:06;;;;;;;7.47;2.25;;;22.60;57.60;;;;;;5066086;28;20032;-69
2022/06/06 01:05:31;;;;;;;7.07;2.05;;;22.60;57.60;;;;;;5062285;28;20020;-69
2022/06/06 01:07:57;;;;;;;8.13;2.28;;;22.60;57.60;;;;;;5063694;28;20441;-69
2022/06/06 01:10:23;;;;;;;7.15;2.13;;;22.50;57.60;;;;;;5064251;28;20024;-68
2022/06/06 01:12:50;;;;;;;8.15;1.88;;;22.50;57.60;;;;;;5064540;28;20056;-69
2022/06/06 01:15:16;;;;;;;5.00;2.08;;;22.50;57.60;;;;;;5047097;28;20082;-69
2022/06/06 01:17:49;;;;;;;6.57;2.08;;;22.50;57.60;;;;;;5063500;28;20025;-68
2022/06/06 01:20:27;;;;;;;6.55;1.90;;;22.50;57.60;;;;;;5063517;28;20082;-69
2022/06/06 01:23:11;;;;;;;7.47;1.80;;;22.50;57.70;;;;;;5062395;28;20027;-69
2022/06/06 01:25:58;;;;;;;6.70;2.03;;;22.50;57.80;;;;;;5063231;28;20561;-69
2022/06/06 01:28:42;;;;;;;5.65;1.77;;;22.50;57.70;;;;;;5063771;28;20029;-69
2022/06/06 01:31:12;;;;;;;7.43;2.13;;;22.40;57.70;;;;;;5062419;28;20024;-69
2022/06/06 01:33:52;;;;;;;7.47;2.10;;;22.40;57.70;;;;;;5063625;28;20031;-69
2022/06/06 01:36:18;;;;;;;5.93;2.03;;;22.40;57.70;;;;;;5062762;28;20041;-69
2022/06/06 01:38:44;;;;;;;6.47;2.10;;;22.40;57.80;;;;;;5060432;28;20075;-69
2022/06/06 01:41:11;;;;;;;6.95;2.00;;;22.40;57.80;;;;;;5060801;28;20029;-69
2022/06/06 01:43:45;;;;;;;6.00;1.90;;;22.40;57.80;;;;;;5057385;28;20167;-69
2022/06/06 01:46:14;;;;;;;7.25;2.08;;;22.30;57.80;;;;;;5047433;28;20025;-68
2022/06/06 01:48:41;;;;;;;6.18;1.98;;;22.40;57.80;;;;;;5046494;28;20520;-69
2022/06/06 01:51:11;;;;;;;6.30;2.00;;;22.30;57.80;;;;;;5063401;28;20029;-68
2022/06/06 01:53:37;;;;;;;6.63;2.00;;;22.40;57.90;;;;;;5062810;28;20029;-69
2022/06/06 01:56:03;;;;;;;5.78;1.90;;;22.30;57.80;;;;;;5060313;28;20525;-68
2022/06/06 01:58:31;;;;;;;6.07;1.77;;;22.30;57.80;;;;;;5062066;28;20033;-68
2022/06/06 02:00:56;;;;;;;6.18;1.90;;;22.30;57.90;;;;;;5062867;28;20024;-69
2022/06/06 02:03:22;;;;;;;6.70;1.88;;;22.30;57.90;;;;;;5061590;28;20025;-68
2022/06/06 02:05:48;;;;;;;5.60;1.90;;;22.20;57.90;;;;;;5060470;28;20021;-69
2022/06/06 02:08:14;;;;;;;6.32;1.80;;;22.30;58.00;;;;;;5061926;28;20024;-69
2022/06/06 02:10:40;;;;;;;4.50;1.77;;;22.20;57.90;;;;;;5061596;28;20091;-68
2022/06/06 02:13:06;;;;;;;5.93;1.80;;;22.30;58.00;;;;;;5062625;28;21166;-68
2022/06/06 02:15:31;;;;;;;5.85;1.80;;;22.20;59.10;;;;;;5058766;28;20063;-68
2022/06/06 02:17:57;;;;;;;5.00;1.83;;;22.20;58.00;;;;;;5061928;28;20377;-68
2022/06/06 02:20:26;;;;;;;4.25;1.60;;;22.20;58.00;;;;;;5061126;28;20106;-68
2022/06/06 02:22:52;;;;;;;6.28;1.90;;;22.20;58.00;;;;;;5059867;28;20035;-69
2022/06/06 02:25:18;;;;;;;6.18;1.85;;;22.20;58.00;;;;;;5062341;28;20109;-68
2022/06/06 02:27:44;;;;;;;5.45;1.90;;;22.20;58.10;;;;;;5061881;28;20082;-68
2022/06/06 02:30:12;;;;;;;4.93;1.70;;;22.20;58.10;;;;;;5060928;28;20020;-68
2022/06/06 02:32:39;;;;;;;5.18;1.70;;;22.20;58.10;;;;;;5062991;28;20035;-69
2022/06/06 02:35:06;;;;;;;6.95;2.00;;;22.10;58.00;;;;;;5061955;28;20060;-68
2022/06/06 02:37:32;;;;;;;4.15;1.60;;;22.10;58.00;;;;;;5060567;28;20017;-69
2022/06/06 02:39:57;;;;;;;5.05;1.80;;;22.10;58.00;;;;;;5060434;28;20032;-68
2022/06/06 02:42:23;;;;;;;6.03;2.00;;;22.10;58.10;;;;;;5062253;28;20463;-68
2022/06/06 02:44:49;;;;;;;4.38;1.55;;;22.10;58.10;;;;;;5059880;28;20053;-68
2022/06/06 02:47:15;;;;;;;6.35;1.65;;;22.10;58.10;;;;;;5061702;28;20024;-68
2022/06/06 02:49:40;;;;;;;5.78;1.95;;;22.10;58.10;;;;;;5062351;28;20036;-68
2022/06/06 02:52:06;;;;;;;4.75;1.80;;;22.10;58.10;;;;;;5062934;28;20070;-68
2022/06/06 02:54:32;;;;;;;6.65;1.98;;;22.10;58.10;;;;;;5060947;28;20121;-68
2022/06/06 02:57:03;;;;;;;5.78;1.80;;;22.10;58.20;;;;;;5061059;28;20032;-68
2022/06/06 02:59:30;;;;;;;6.47;1.90;;;22.00;58.10;;;;;;5061980;28;20035;-69
2022/06/06 03:01:56;;;;;;;6.32;1.85;;;22.00;58.10;;;;;;5046075;28;20028;-68
2022/06/06 03:04:22;;;;;;;3.30;1.42;;;22.00;58.10;;;;;;5060880;28;20511;-67
2022/06/06 03:07:06;;;;;;;6.13;2.03;;;22.00;58.20;;;;;;5059071;28;20436;-68
2022/06/06 03:09:36;;;;;;;5.72;1.70;;;22.00;58.20;;;;;;5062497;28;20097;-68
2022/06/06 03:12:07;;;;;;;7.72;2.35;;;22.00;58.20;;;;;;5062513;28;20484;-68
2022/06/06 03:14:50;;;;;;;4.55;1.70;;;22.00;58.20;;;;;;5060904;28;20128;-68
2022/06/06 03:23:27;;;;;;;4.97;1.70;;;21.90;58.30;;;;;;5060621;28;20162;-68
2022/06/06 03:26:05;;;;;;;4.97;1.50;;;21.90;58.20;;;;;;5061985;28;20032;-69
2022/06/06 03:28:48;;;;;;;6.18;1.88;;;21.90;58.20;;;;;;5063118;28;20488;-68
2022/06/06 03:31:48;;;;;;;4.45;1.70;;;21.90;58.20;;;;;;5062469;28;20551;-69
2022/06/06 03:34:15;;;;;;;5.15;1.67;;;21.90;58.20;;;;;;5062095;28;20746;-68
2022/06/06 03:37:07;;;;;;;5.57;2.00;;;21.90;58.30;;;;;;5060537;28;20032;-69
2022/06/06 03:39:51;;;;;;;3.95;1.50;;;21.90;58.20;;;;;;5063158;28;20432;-69
2022/06/06 03:42:29;;;;;;;4.80;1.65;;;21.80;58.20;;;;;;5063096;28;20040;-69
2022/06/06 03:45:30;;;;;;;4.93;1.80;;;21.80;58.20;;;;;;5060361;28;20036;-69
2022/06/06 03:48:22;;;;;;;5.53;1.77;;;21.80;58.10;;;;;;5061821;28;20401;-68
2022/06/06 03:51:07;;;;;;;5.65;1.75;;;21.80;58.20;;;;;;5059267;28;20151;-69
2022/06/06 03:53:36;;;;;;;4.28;1.70;;;21.80;58.20;;;;;;5060166;28;20138;-69
2022/06/06 03:56:08;;;;;;;6.05;1.90;;;21.80;58.20;;;;;;5063553;28;20039;-69
2022/06/06 03:58:34;;;;;;;3.22;1.60;;;21.80;58.20;;;;;;5078036;28;20021;-68
2022/06/06 04:01:02;;;;;;;5.82;1.80;;;21.80;58.20;;;;;;5062555;28;20508;-68
2022/06/06 04:03:29;;;;;;;5.18;2.10;;;21.80;58.30;;;;;;5064778;28;20028;-69
2022/06/06 04:05:54;;;;;;;5.68;2.03;;;21.80;58.20;;;;;;5061404;28;20017;-69
2022/06/06 04:08:20;;;;;;;5.22;1.73;;;21.80;58.20;;;;;;5065552;28;20097;-68
2022/06/06 04:10:49;;;;;;;4.80;1.73;;;21.70;58.10;;;;;;5064871;28;20032;-69
2022/06/06 04:13:33;;;;;;;4.80;1.65;;;21.70;58.20;;;;;;5078778;28;20485;-68
2022/06/06 04:16:21;;;;;;;4.80;1.60;;;21.70;58.20;;;;;;5065340;28;20085;-69
2022/06/06 04:18:50;;;;;;;4.07;1.63;;;21.70;58.20;;;;;;5064782;28;20032;-69
2022/06/06 04:21:41;;;;;;;3.97;1.70;;;21.70;58.20;;;;;;5061828;28;20040;-69
2022/06/06 04:24:34;;;;;;;7.85;1.80;;;21.70;58.20;;;;;;5064253;28;20028;-69
2022/06/06 04:27:15;;;;;;;5.82;1.77;;;21.70;58.20;;;;;;5065166;28;20012;-68
2022/06/06 04:29:54;;;;;;;6.22;2.00;;;21.70;58.20;;;;;;5066082;28;20059;-68
2022/06/06 04:32:47;;;;;;;4.68;1.60;;;21.70;58.10;;;;;;5066400;28;20040;-67
2022/06/06 04:35:26;;;;;;;4.00;1.60;;;21.60;58.20;;;;;;5063469;28;20059;-68
2022/06/06 04:38:07;;;;;;;6.18;1.77;;;21.60;58.20;;;;;;5063294;28;20033;-69
2022/06/06 04:40:44;;;;;;;3.80;1.60;;;21.60;58.20;;;;;;5065084;28;20017;-69
2022/06/06 04:43:42;;;;;;;7.63;1.88;;;21.60;58.10;;;;;;5067773;28;20113;-68
2022/06/06 04:46:29;;;;;;;5.82;2.00;;;21.60;58.30;;;;;;5063729;28;20028;-69
2022/06/06 04:48:54;;;;;;;5.95;1.75;;;21.60;58.10;;;;;;5065885;28;20040;-69
2022/06/06 04:51:21;;;;;;;4.70;1.80;;;21.60;58.10;;;;;;5063421;28;20496;-68
2022/06/06 04:53:49;;;;;;;6.60;1.77;;;21.60;58.20;;;;;;5065324;28;20035;-68
2022/06/06 04:56:16;;;;;;;7.25;2.08;;;21.60;58.20;;;;;;5063177;28;20029;-68
2022/06/06 04:58:42;;;;;;;4.20;1.65;;;21.60;58.20;;;;;;5064564;28;20428;-68
2022/06/06 05:01:08;;;;;;;4.35;1.80;;;21.50;58.20;;;;;;5062974;28;20545;-68
2022/06/06 05:03:34;;;;;;;5.80;2.00;;;21.50;58.10;;;;;;5060327;28;20052;-68
2022/06/06 05:06:09;;;;;;;5.15;1.65;;;21.50;58.20;;;;;;5060825;28;20029;-68
2022/06/06 05:08:51;;;;;;;5.35;1.77;;;21.50;58.30;;;;;;5066386;28;20447;-69
2022/06/06 05:11:35;;;;;;;5.95;1.83;;;21.50;58.20;;;;;;5080377;28;20034;-68
2022/06/06 05:14:38;;;;;;;6.60;1.90;;;21.50;58.30;;;;;;5062895;28;20042;-68
2022/06/06 05:17:23;;;;;;;3.55;1.50;;;21.50;58.20;;;;;;5062109;28;20025;-69
2022/06/06 05:19:55;;;;;;;5.05;1.98;;;21.50;58.20;;;;;;5063477;28;20045;-68
2022/06/06 05:22:54;;;;;;;7.50;1.90;;;21.50;58.30;;;;;;5067873;28;20029;-68
2022/06/06 05:25:32;;;;;;;4.68;1.70;;;21.40;58.20;;;;;;5067337;28;20028;-69
2022/06/06 05:28:35;;;;;;;5.70;1.98;;;21.40;58.20;;;;;;5064649;28;20025;-69
2022/06/06 05:31:09;;;;;;;4.30;1.80;;;21.40;58.20;;;;;;5062591;28;20037;-68
2022/06/06 05:33:35;;;;;;;6.32;1.60;;;21.40;58.20;;;;;;5061299;28;20024;-68
2022/06/06 05:36:25;;;;;;;4.75;1.60;;;21.40;58.20;;;;;;5063186;28;20541;-68
2022/06/06 05:39:06;;;;;;;4.60;1.73;;;21.40;58.20;;;;;;5062962;28;20571;-69
2022/06/06 05:42:26;;;;;;;4.93;1.88;;;21.40;58.20;;;;;;5061475;28;20027;-69
2022/06/06 05:45:16;;;;;;;5.13;1.65;;;21.40;58.20;;;;;;5043142;28;20025;-69
2022/06/06 05:48:26;;;;;;;4.38;1.50;;;21.40;58.30;;;;;;5041778;28;20032;-68
2022/06/06 05:51:13;;;;;;;5.43;1.70;;;21.40;58.20;;;;;;5026517;28;20052;-69
2022/06/06 05:53:38;;;;;;;4.28;1.52;;;21.40;58.20;;;;;;5042394;28;20167;-68
2022/06/06 05:56:30;;;;;;;4.60;1.70;;;21.40;58.20;;;;;;5041969;28;20045;-69
2022/06/06 05:59:24;;;;;;;4.35;1.60;;;21.40;58.20;;;;;;5041236;28;20034;-69
2022/06/06 06:02:05;;;;;;;5.53;1.83;;;21.30;58.20;;;;;;4986179;28;20042;-68
2022/06/06 06:04:38;;;;;;;3.60;1.42;;;21.40;58.30;;;;;;4983835;28;20431;-68
2022/06/06 06:07:26;;;;;;;4.35;1.60;;;21.30;58.20;;;;;;4983317;28;20466;-68
2022/06/06 06:10:06;;;;;;;5.20;1.80;;;21.30;58.20;;;;;;4983746;28;20615;-69
2022/06/06 06:13:14;;;;;;;5.05;1.80;;;21.30;58.20;;;;;;4984050;28;20110;-69
2022/06/06 06:15:43;;;;;;;4.45;1.80;;;21.30;58.30;;;;;;4978243;28;21053;-66
2022/06/06 06:18:30;;;;;;;5.63;2.00;;;21.30;58.30;;;;;;5002842;28;20629;-69
2022/06/06 06:21:02;;;;;;;4.95;1.65;;;21.30;58.30;;;;;;5001927;28;20026;-68
2022/06/06 06:23:30;;;;;;;5.15;1.80;;;21.30;58.30;;;;;;5001181;28;20040;-68
2022/06/06 06:25:55;;;;;;;4.68;1.67;;;21.30;58.40;;;;;;4986401;28;24349;-68
2022/06/06 06:28:21;;;;;;;4.90;1.67;;;21.30;58.40;;;;;;5003024;28;20026;-68
2022/06/06 06:30:59;;;;;;;4.20;1.90;;;21.30;58.50;;;;;;5003192;28;20069;-68
2022/06/06 06:33:46;;;;;;;5.50;2.00;;;21.20;58.30;;;;;;4985872;28;20044;-68
2022/06/06 06:36:16;;;;;;;3.40;1.60;;;21.30;58.40;;;;;;4987116;28;20042;-68
2022/06/06 06:38:57;;;;;;;4.45;1.63;;;21.30;58.40;;;;;;5015492;28;20137;-68
2022/06/06 06:41:30;;;;;;;4.57;1.77;;;21.20;58.30;;;;;;5062351;28;20029;-68
2022/06/06 06:44:09;;;;;;;3.25;1.70;;;21.20;58.30;;;;;;5061060;28;20059;-69
2022/06/06 06:47:09;;;;;;;3.95;1.50;;;21.20;58.40;;;;;;5063606;28;20021;-68
2022/06/06 06:49:51;;;;;;;3.60;1.60;;;21.20;59.40;;;;;;5055747;28;20044;-68
2022/06/06 06:52:52;;;;;;;3.60;1.58;;;21.20;58.40;;;;;;5064303;28;21977;-68
2022/06/06 06:55:24;;;;;;;3.67;1.50;;;21.20;58.60;;;;;;5040794;28;20059;-68
2022/06/06 06:58:08;;;;;;;4.70;1.80;;;21.20;58.50;;;;;;5040676;28;20709;-68
2022/06/06 07:01:00;;;;;;;3.97;1.50;;;21.20;58.50;;;;;;5039888;28;20208;-68
2022/06/06 07:09:11;;;;;;;3.70;1.52;;;21.20;58.50;;;;;;5039716;28;20087;-68
2022/06/06 07:11:52;;;;;;;4.63;1.83;;;21.20;58.50;;;;;;5041360;28;20071;-68
2022/06/06 07:14:21;;;;;;;5.63;1.70;;;21.20;58.40;;;;;;5042270;28;20468;-68
2022/06/06 07:16:50;;;;;;;4.82;1.70;;;21.20;58.50;;;;;;5023011;28;20040;-68
2022/06/06 07:19:18;;;;;;;3.92;1.60;;;21.20;58.50;;;;;;5025827;28;20032;-68
2022/06/06 07:21:46;;;;;;;4.43;1.80;;;21.20;58.50;;;;;;5039872;28;20032;-67
2022/06/06 07:24:19;;;;;;;5.38;1.77;;;21.20;58.50;;;;;;5041567;28;20119;-68
2022/06/06 07:26:45;;;;;;;5.38;1.77;;;21.20;58.50;;;;;;5007688;28;20041;-68
2022/06/06 07:29:16;;;;;;;5.60;1.85;;;21.20;58.30;;;;;;5045208;28;20025;-68
2022/06/06 07:31:48;;;;;;;4.40;1.67;;;21.20;58.20;;;;;;5063907;28;20032;-67
2022/06/06 07:34:37;;;;;;;4.10;1.73;;;21.20;58.30;;;;;;5047762;28;20107;-68
2022/06/06 07:37:14;;;;;;;4.55;1.67;;;21.20;58.30;;;;;;5067809;28;20024;-67
2022/06/06 07:39:59;;;;;;;4.35;1.80;;;21.10;58.10;;;;;;5066778;28;20033;-66
2022/06/06 07:42:29;;;;;;;4.00;1.85;;;21.10;58.20;;;;;;5067084;28;20519;-67
2022/06/06 07:45:21;;;;;;;3.45;1.60;;;21.20;58.10;;;;;;5062979;28;20512;-68
2022/06/06 07:48:01;;;;;;;3.90;1.77;;;21.20;58.20;;;;;;5066196;28;20025;-67
2022/06/06 07:50:33;;;;;;;4.38;1.80;;;21.10;58.10;;;;;;5067833;28;20533;-67
2022/06/06 07:53:04;;;;;;;5.15;1.60;;;21.20;58.20;;;;;;5066473;28;20016;-68
2022/06/06 07:55:34;;;;;;;6.30;2.00;;;21.20;58.20;;;;;;5067249;28;20086;-67
2022/06/06 07:58:09;;;;;;;5.10;1.70;;;21.20;58.20;;;;;;5068049;28;20070;-67
2022/06/06 08:00:35;;;;;;;4.30;1.60;;;21.20;58.20;;;;;;5062935;28;20017;-69
2022/06/06 08:03:15;;;;;;;3.30;1.48;;;21.20;58.20;;;;;;5065397;28;20126;-68
2022/06/06 08:06:01;;;;;;;3.58;1.60;;;21.30;58.40;;;;;;5064063;28;20032;-68
2022/06/06 08:09:02;;;;;;;5.80;1.60;;;21.30;58.10;;;;;;5061227;28;20055;-68
2022/06/06 08:11:35;;;;;;;9.35;1.75;;;21.30;56.90;;;;;;5064757;28;20033;-68
2022/06/06 08:14:10;;;;;;;5.38;1.60;;;21.20;56.30;;;;;;5066804;28;20052;-68
2022/06/06 08:16:57;;;;;;;5.95;1.50;;;21.20;56.60;;;;;;5068943;28;20075;-68
2022/06/06 08:19:30;;;;;;;6.70;1.60;;;21.20;56.60;;;;;;5067879;28;20107;-68
2022/06/06 08:21:56;;;;;;;6.07;1.40;;;21.30;56.40;;;;;;5066713;28;20245;-68
2022/06/06 08:24:32;;;;;;;7.28;1.65;;;21.20;56.20;;;;;;5067357;28;20139;-67
2022/06/06 08:26:59;;;;;;;6.20;1.70;;;21.20;55.80;;;;;;5065469;28;20025;-68
2022/06/06 08:29:25;;;;;;;7.45;1.73;;;21.20;55.50;;;;;;5066914;28;20029;-68
2022/06/06 08:31:51;;;;;;;7.00;1.48;;;21.30;56.40;;;;;;5066812;28;20040;-68
2022/06/06 08:34:17;;;;;;;10.05;1.60;;;21.30;56.80;;;;;;5067841;28;20064;-68
2022/06/06 08:36:57;;;;;;;4.47;1.40;;;21.30;56.90;;;;;;5062027;28;20429;-68
2022/06/06 08:39:28;;;;;;;4.78;1.50;;;21.40;56.90;;;;;;5064950;28;20028;-68
2022/06/06 08:42:18;;;;;;;5.15;1.50;;;21.40;56.80;;;;;;5061053;28;20486;-68
2022/06/06 08:45:05;;;;;;;8.50;1.50;;;21.40;56.80;;;;;;5066732;28;20024;-68
2022/06/06 08:47:51;;;;;;;5.88;1.38;;;21.40;57.20;;;;;;5064759;28;20058;-68
2022/06/06 08:50:44;;;;;;;4.53;1.35;;;21.40;57.20;;;;;;5065513;28;20479;-68
2022/06/06 08:53:26;;;;;;;7.35;1.90;;;21.50;57.10;;;;;;5062822;28;20546;-68
2022/06/06 08:55:51;;;;;;;5.43;1.50;;;21.50;57.10;;;;;;5066268;28;20028;-68
2022/06/06 08:58:26;;;;;;;5.88;1.30;;;21.50;57.20;;;;;;5066509;28;20035;-68
2022/06/06 09:01:03;;;;;;;4.30;1.30;;;21.50;57.20;;;;;;5065756;28;20032;-68
2022/06/06 09:03:47;;;;;;;4.03;1.60;;;21.50;57.20;;;;;;5065088;28;20033;-68
2022/06/06 09:06:24;;;;;;;5.13;1.60;;;21.50;57.30;;;;;;5065131;28;20029;-68
2022/06/06 09:09:09;;;;;;;6.00;1.70;;;21.50;57.30;;;;;;5065886;28;20032;-68
2022/06/06 09:11:56;;;;;;;5.27;1.50;;;21.50;57.40;;;;;;5064802;28;20025;-68
2022/06/06 09:14:55;;;;;;;6.90;1.50;;;21.50;57.40;;;;;;5065970;28;20483;-67
2022/06/06 09:17:58;;;;;;;5.82;1.60;;;21.50;57.50;;;;;;5066744;28;20040;-68
2022/06/06 09:20:50;;;;;;;7.00;1.67;;;21.60;57.50;;;;;;5043919;28;20031;-67
2022/06/06 09:23:16;;;;;;;5.85;1.75;;;21.60;57.40;;;;;;5044279;28;20037;-68
2022/06/06 09:25:59;;;;;;;4.18;1.50;;;21.50;57.40;;;;;;5044754;28;20672;-67
2022/06/06 09:28:48;;;;;;;7.30;1.70;;;21.60;57.30;;;;;;5046257;28;20052;-68
2022/06/06 09:31:34;;;;;;;5.80;1.50;;;21.60;57.30;;;;;;5045865;28;20029;-68
2022/06/06 09:34:03;;;;;;;7.90;1.65;;;21.70;57.40;;;;;;5045202;28;20028;-68
2022/06/06 09:37:04;;;;;;;5.10;1.58;;;21.60;57.30;;;;;;5042675;28;20033;-68
2022/06/06 09:39:43;;;;;;;4.55;1.60;;;21.60;57.30;;;;;;5041336;28;20033;-69
2022/06/06 09:42:26;;;;;;;5.72;1.70;;;21.70;57.30;;;;;;5043922;28;20533;-68
2022/06/06 09:45:11;;;;;;;4.13;1.52;;;21.60;57.30;;;;;;5042291;28;20029;-68
2022/06/06 09:48:04;;;;;;;6.43;1.93;;;21.60;57.30;;;;;;5040666;28;20045;-68
2022/06/06 09:50:54;;;;;;;6.60;1.70;;;21.60;57.40;;;;;;5043232;28;20129;-68
2022/06/06 09:53:28;;;;;;;3.95;1.45;;;21.70;57.50;;;;;;5046553;28;20064;-68
2022/06/06 09:59:55;;;;;;;5.10;1.70;;;21.70;57.40;;;;;;5065402;28;20032;-68
2022/06/06 10:02:44;;;;;;;4.75;1.60;;;21.70;57.30;;;;;;5025004;28;20038;-67
2022/06/06 10:05:15;;;;;;;6.95;1.60;;;21.80;57.60;;;;;;5021541;28;20079;-69
2022/06/06 10:08:18;;;;;;;6.43;1.58;;;21.70;57.30;;;;;;5026412;28;20033;-68
2022/06/06 10:11:37;;;;;;;6.38;1.60;;;21.70;57.40;;;;;;5024710;28;20029;-69
2022/06/06 10:14:25;;;;;;;6.57;1.60;;;21.70;56.70;;;;;;4982536;28;20037;-69
2022/06/06 10:17:07;;;;;;;4.30;1.20;;;21.60;56.50;;;;;;4999918;28;20053;-69
2022/06/06 10:20:00;;;;;;;6.10;1.60;;;21.60;56.60;;;;;;4983399;28;20044;-69
2022/06/06 10:22:32;;;;;;;9.55;1.50;;;21.60;56.70;;;;;;4980963;28;20499;-73
2022/06/06 10:25:39;;;;;;;9.38;1.70;;;21.60;56.60;;;;;;4984706;28;20042;-74
2022/06/06 10:28:42;;;;;;;6.65;1.48;;;21.50;56.40;;;;;;4954294;28;20045;-74
2022/06/06 10:31:07;;;;;;;7.20;1.40;;;21.50;56.50;;;;;;4950197;28;20150;-73
2022/06/06 10:33:43;;;;;;;8.93;1.70;;;21.60;56.60;;;;;;4956487;28;20177;-73
2022/06/06 10:36:50;;;;;;;7.70;1.58;;;21.60;56.80;;;;;;4932798;28;20045;-74
2022/06/06 10:40:08;;;;;;;5.93;1.60;;;21.50;57.10;;;;;;4959756;28;20140;-73
2022/06/06 10:42:57;;;;;;;7.63;1.52;;;21.50;57.10;;;;;;4905203;29;20092;-73
2022/06/06 10:45:48;;;;;;;5.22;1.38;;;21.50;57.20;;;;;;4907189;29;20131;-73
2022/06/06 10:48:22;;;;;;;3.38;1.30;;;21.50;57.40;;;;;;4913337;29;20497;-73
2022/06/06 10:53:46;;;;;;;8.15;1.85;;;21.50;57.90;;;;;;4913146;29;20039;-73
2022/06/06 10:56:32;;;;;;;5.15;1.38;;;21.60;57.80;;;;;;4924075;29;20044;-74
2022/06/06 10:59:03;;;;;;;4.25;1.27;;;21.60;57.70;;;;;;4926256;29;20110;-73
2022/06/06 11:01:50;;;;;;;6.60;1.40;;;21.70;57.70;;;;;;4913960;29;20035;-74
2022/06/06 11:04:46;;;;;;;5.28;1.42;;;21.70;58.00;;;;;;4931765;28;20111;-74
2022/06/06 11:07:38;;;;;;;4.45;1.20;;;21.70;57.70;;;;;;4963001;28;20066;-73
2022/06/06 11:10:25;;;;;;;3.58;1.20;;;21.70;57.60;;;;;;4971085;28;20034;-73
2022/06/06 11:13:00;;;;;;;4.40;1.30;;;21.70;57.60;;;;;;4979846;28;20042;-73
2022/06/06 11:15:35;;;;;;;7.47;1.38;;;21.70;57.50;;;;;;4981896;28;20046;-74
2022/06/06 11:18:35;;;;;;;6.13;1.48;;;21.70;57.70;;;;;;5020474;28;20036;-73
2022/06/06 11:21:06;;;;;;;5.95;1.42;;;21.70;57.60;;;;;;5058793;28;20040;-72
2022/06/06 11:23:38;;;;;;;3.22;1.38;;;21.70;57.70;;;;;;5060853;28;20024;-74
2022/06/06 11:26:13;;;;;;;3.20;1.27;;;21.70;58.10;;;;;;5064160;28;20116;-73
2022/06/06 11:29:11;;;;;;;4.47;1.40;;;21.60;58.00;;;;;;5062301;28;20025;-73
2022/06/06 11:32:11;;;;;;;3.22;1.05;;;21.60;58.00;;;;;;5034038;28;20033;-73
2022/06/06 11:34:39;;;;;;;3.88;1.30;;;21.70;58.30;;;;;;5041237;28;20040;-73
2022/06/06 11:37:20;;;;;;;8.48;1.25;;;21.60;58.40;;;;;;5044067;28;20652;-73
2022/06/06 11:40:10;;;;;;;2.92;1.10;;;21.70;58.30;;;;;;5042453;28;20040;-73
2022/06/06 11:42:57;;;;;;;4.93;1.20;;;21.60;58.50;;;;;;5041792;28;20533;-72
2022/06/06 11:45:34;;;;;;;3.78;1.00;;;21.60;58.30;;;;;;5038816;28;20033;-72
2022/06/06 11:48:29;;;;;;;4.35;1.35;;;21.70;58.30;;;;;;5022489;28;20040;-71
2022/06/06 11:51:13;;;;;;;4.78;1.20;;;21.70;58.10;;;;;;5001475;28;20054;-72
2022/06/06 11:53:44;;;;;;;5.32;1.27;;;21.80;58.00;;;;;;5002678;28;20113;-72
2022/06/06 11:56:44;;;;;;;4.22;1.30;;;21.80;58.20;;;;;;5003632;28;20046;-72
2022/06/06 11:59:22;;;;;;;7.72;1.38;;;21.90;58.50;;;;;;5001427;28;20030;-72
2022/06/06 12:02:10;;;;;;;4.40;1.15;;;21.90;58.30;;;;;;4998965;28;20042;-72
2022/06/06 12:05:06;;;;;;;8.75;1.60;;;22.00;58.00;;;;;;4992240;28;20042;-72
2022/06/06 12:08:07;;;;;;;5.28;1.50;;;22.00;58.40;;;;;;5000094;28;20108;-72
2022/06/06 12:10:52;;;;;;;4.32;1.20;;;22.10;57.90;;;;;;4980237;28;20542;-72
2022/06/06 12:13:42;;;;;;;4.93;1.52;;;22.10;58.50;;;;;;4964210;28;20049;-72
2022/06/06 12:16:30;;;;;;;6.55;1.95;;;22.20;58.90;;;;;;4985083;28;20512;-72
2022/06/06 12:19:12;;;;;;;9.88;2.38;;;22.20;58.50;;;;;;4985353;28;20038;-72
2022/06/06 12:21:52;;;;;;;7.75;2.03;;;22.20;58.30;;;;;;4966488;28;20042;-72
2022/06/06 12:24:36;;;;;;;7.80;2.15;;;22.20;58.10;;;;;;4968352;28;20041;-73
2022/06/06 12:27:15;;;;;;;12.10;2.30;;;22.20;58.40;;;;;;4985009;28;20126;-72
2022/06/06 12:30:09;;;;;;;13.95;2.80;;;22.20;58.30;;;;;;5026286;28;20037;-71
2022/06/06 12:32:52;;;;;;;7.38;2.10;;;22.20;58.10;;;;;;5036410;28;20033;-72
2022/06/06 12:35:31;;;;;;;8.95;2.10;;;22.20;58.00;;;;;;5038997;28;20060;-72
2022/06/06 12:38:02;;;;;;;10.45;1.90;;;22.20;57.80;;;;;;5025285;28;20052;-70
2022/06/06 12:40:40;;;;;;;7.15;1.70;;;22.20;58.30;;;;;;5044768;28;20484;-70
2022/06/06 12:43:33;;;;;;;11.60;2.10;;;22.20;58.60;;;;;;5030319;28;20062;-71
2022/06/06 12:46:37;;;;;;;8.07;1.58;;;22.20;58.40;;;;;;5039583;28;20072;-71
2022/06/06 12:49:19;;;;;;;7.63;2.40;;;22.20;58.80;;;;;;5064661;28;20049;-71
2022/06/06 12:51:53;;;;;;;8.35;2.03;;;22.20;58.70;;;;;;5065949;28;20021;-71
2022/06/06 12:57:50;;;;;;;5.63;1.70;;;22.30;58.60;;;;;;5061972;28;20035;-72
2022/06/06 13:00:18;;;;;;;8.02;1.85;;;22.30;58.90;;;;;;5064045;28;20020;-72
2022/06/06 13:03:13;;;;;;;4.72;1.90;;;22.30;58.80;;;;;;5062506;28;20119;-72
2022/06/06 13:05:44;;;;;;;;;;;22.30;58.90;;;;;;5053663;28;20037;-72
2022/06/06 13:08:29;;;;;;;11.48;1.90;;;22.30;59.00;;;;;;5061799;28;19940;-72
2022/06/06 13:11:37;;;;;;;8.43;2.30;;;22.30;59.50;;;;;;5062525;28;20090;-72
2022/06/06 13:14:09;;;;;;;8.07;2.33;;;22.30;59.40;;;;;;5059576;28;20047;-71
2022/06/06 13:16:44;;;;;;;8.40;2.00;;;22.40;59.70;;;;;;5065909;28;20180;-72
2022/06/06 13:19:40;;;;;;;6.97;2.05;;;22.40;59.80;;;;;;5065624;28;20036;-71
2022/06/06 13:22:30;;;;;;;8.45;1.95;;;22.40;60.00;;;;;;5062957;28;20043;-74
2022/06/06 13:25:32;;;;;;;11.82;1.98;;;22.40;60.10;;;;;;5064618;28;20056;-72
2022/06/06 13:28:12;;;;;;;8.35;1.90;;;22.40;60.30;;;;;;5066805;28;20439;-72
2022/06/06 13:30:47;;;;;;;8.15;2.13;;;22.40;60.60;;;;;;5064218;28;20020;-75
2022/06/06 13:33:30;;;;;;;;;;;22.40;60.90;;;;;;5060702;28;20032;-74
2022/06/06 13:36:15;;;;;;;8.32;2.30;;;22.40;60.60;;;;;;5059276;28;19969;-72
2022/06/06 13:39:19;;;;;;;6.78;1.90;;;22.40;61.10;;;;;;5056581;28;20039;-73
2022/06/06 13:41:57;;;;;;;9.23;2.20;;;22.40;61.10;;;;;;5079541;28;20497;-72
2022/06/06 13:44:38;;;;;;;6.72;2.17;;;22.40;61.10;;;;;;5061377;28;20048;-72
2022/06/06 13:47:10;;;;;;;9.18;2.03;;;22.40;61.30;;;;;;5063210;28;20035;-73
2022/06/06 13:49:57;;;;;;;6.18;2.03;;;22.40;61.00;;;;;;5061266;28;20048;-73
2022/06/06 13:52:34;;;;;;;7.43;2.22;;;22.40;61.00;;;;;;5063908;28;20052;-73
2022/06/06 13:55:37;;;;;;;7.68;2.30;;;22.40;61.00;;;;;;5061937;28;20093;-75
2022/06/06 13:58:25;;;;;;;10.35;2.28;;;22.50;61.50;;;;;;5025639;28;20176;-75
2022/06/06 14:01:15;;;;;;;8.73;2.40;;;22.50;61.70;;;;;;5041911;28;20037;-75
2022/06/06 14:04:08;;;;;;;8.10;2.50;;;22.40;61.80;;;;;;5040279;28;20025;-76
2022/06/06 14:07:12;;;;;;;7.38;2.30;;;22.40;62.20;;;;;;5040783;28;20028;-71
2022/06/06 14:09:45;;;;;;;7.63;2.07;;;22.40;62.40;;;;;;5040986;28;20025;-72
2022/06/06 14:13:08;;;;;;;9.63;2.03;;;22.50;62.30;;;;;;5035300;28;20043;-72